sensor_id;sensor_type;location;lat;lon;timestamp;temperature;humidity
47600;DHT22;33323;52.124;6.018;2022-12-07T00:01:37;3.90;99.90
47600;DHT22;33323;52.124;6.018;2022-12-07T00:04:06;3.70;99.90
47600;DHT22;33323;52.124;6.018;2022-12-07T00:06:41;3.70;99.90
47600;DHT22;33323;52.124;6.018;2022-12-07T00:09:11;3.60;99.90
47600;DHT22;33323;52.124;6.018;2022-12-07T00:11:40;3.60;99.90
47600;DHT22;33323;52.124;6.018;2022-12-07T00:14:12;3.50;99.90
47600;DHT22;33323;52.124;6.018;2022-12-07T00:16:40;3.50;99.90
47600;DHT22;33323;52.124;6.018;2022-12-07T00:19:10;3.60;99.90
47600;DHT22;33323;52.124;6.018;2022-12-07T00:21:38;3.60;99.90
47600;DHT22;33323;52.124;6.018;2022-12-07T00:24:06;3.60;99.90
47600;DHT22;33323;52.124;6.018;2022-12-07T00:26:35;3.60;99.90
47600;DHT22;33323;52.124;6.018;2022-12-07T00:29:07;3.60;99.90
47600;DHT22;33323;52.124;6.018;2022-12-07T00:31:39;3.50;99.90
47600;DHT22;33323;52.124;6.018;2022-12-07T00:34:12;3.50;99.90
47600;DHT22;33323;52.124;6.018;2022-12-07T00:36:41;3.50;99.90
47600;DHT22;33323;52.124;6.018;2022-12-07T00:39:09;3.40;99.90
47600;DHT22;33323;52.124;6.018;2022-12-07T00:41:36;3.40;99.90
47600;DHT22;33323;52.124;6.018;2022-12-07T00:44:03;3.30;99.90
47600;DHT22;33323;52.124;6.018;2022-12-07T00:46:30;3.30;99.90
47600;DHT22;33323;52.124;6.018;2022-12-07T00:48:57;3.30;99.90
47600;DHT22;33323;52.124;6.018;2022-12-07T00:51:25;3.30;99.90
47600;DHT22;33323;52.124;6.018;2022-12-07T00:53:53;3.30;99.90
47600;DHT22;33323;52.124;6.018;2022-12-07T00:56:31;3.20;99.90
47600;DHT22;33323;52.124;6.018;2022-12-07T00:59:02;3.20;99.90
47600;DHT22;33323;52.124;6.018;2022-12-07T01:01:35;3.10;99.90
47600;DHT22;33323;52.124;6.018;2022-12-07T01:04:04;3.10;99.90
47600;DHT22;33323;52.124;6.018;2022-12-07T01:09:43;3.20;99.90
47600;DHT22;33323;52.124;6.018;2022-12-07T01:12:11;3.20;99.90
47600;DHT22;33323;52.124;6.018;2022-12-07T01:14:38;3.10;99.90
47600;DHT22;33323;52.124;6.018;2022-12-07T01:26:22;3.10;99.90
47600;DHT22;33323;52.124;6.018;2022-12-07T01:28:59;3.10;99.90
47600;DHT22;33323;52.124;6.018;2022-12-07T01:31:28;3.10;99.90
47600;DHT22;33323;52.124;6.018;2022-12-07T01:33:57;3.00;99.90
47600;DHT22;33323;52.124;6.018;2022-12-07T01:40:07;3.00;99.90
47600;DHT22;33323;52.124;6.018;2022-12-07T01:42:35;3.00;99.90
47600;DHT22;33323;52.124;6.018;2022-12-07T01:51:27;3.10;99.90
47600;DHT22;33323;52.124;6.018;2022-12-07T01:54:19;3.10;99.90
47600;DHT22;33323;52.124;6.018;2022-12-07T02:00:39;3.00;99.90
47600;DHT22;33323;52.124;6.018;2022-12-07T02:05:51;3.00;99.90
47600;DHT22;33323;52.124;6.018;2022-12-07T02:08:20;3.00;99.90
47600;DHT22;33323;52.124;6.018;2022-12-07T02:10:47;3.00;99.90
47600;DHT22;33323;52.124;6.018;2022-12-07T02:13:18;3.00;99.90
47600;DHT22;33323;52.124;6.018;2022-12-07T02:16:14;3.00;99.90
47600;DHT22;33323;52.124;6.018;2022-12-07T02:30:16;2.90;99.90
47600;DHT22;33323;52.124;6.018;2022-12-07T02:33:53;3.00;99.90
47600;DHT22;33323;52.124;6.018;2022-12-07T02:41:37;3.10;99.90
47600;DHT22;33323;52.124;6.018;2022-12-07T02:45:34;3.20;99.90
47600;DHT22;33323;52.124;6.018;2022-12-07T02:51:43;3.30;99.90
47600;DHT22;33323;52.124;6.018;2022-12-07T02:54:14;3.30;99.90
47600;DHT22;33323;52.124;6.018;2022-12-07T02:59:16;3.30;99.90
47600;DHT22;33323;52.124;6.018;2022-12-07T03:09:21;3.50;99.90
47600;DHT22;33323;52.124;6.018;2022-12-07T03:12:10;3.40;99.90
47600;DHT22;33323;52.124;6.018;2022-12-07T03:18:58;3.50;99.90
47600;DHT22;33323;52.124;6.018;2022-12-07T03:21:49;3.50;99.90
47600;DHT22;33323;52.124;6.018;2022-12-07T03:24:27;3.50;99.90
47600;DHT22;33323;52.124;6.018;2022-12-07T03:27:03;3.50;99.90
47600;DHT22;33323;52.124;6.018;2022-12-07T03:33:26;3.50;99.90
47600;DHT22;33323;52.124;6.018;2022-12-07T03:36:02;3.40;99.90
47600;DHT22;33323;52.124;6.018;2022-12-07T03:38:45;3.50;99.90
47600;DHT22;33323;52.124;6.018;2022-12-07T03:41:23;3.50;99.90
47600;DHT22;33323;52.124;6.018;2022-12-07T03:43:54;3.50;99.90
47600;DHT22;33323;52.124;6.018;2022-12-07T03:46:44;3.50;99.90
47600;DHT22;33323;52.124;6.018;2022-12-07T03:49:37;3.50;99.90
47600;DHT22;33323;52.124;6.018;2022-12-07T03:52:31;3.50;99.90
47600;DHT22;33323;52.124;6.018;2022-12-07T03:55:08;3.40;99.90
47600;DHT22;33323;52.124;6.018;2022-12-07T03:57:39;3.30;99.90
47600;DHT22;33323;52.124;6.018;2022-12-07T04:00:09;3.20;99.90
47600;DHT22;33323;52.124;6.018;2022-12-07T04:02:58;3.70;99.90
47600;DHT22;33323;52.124;6.018;2022-12-07T04:05:25;3.60;99.90
47600;DHT22;33323;52.124;6.018;2022-12-07T04:07:52;3.50;99.90
47600;DHT22;33323;52.124;6.018;2022-12-07T04:10:20;3.30;99.90
47600;DHT22;33323;52.124;6.018;2022-12-07T04:15:57;3.10;99.90
47600;DHT22;33323;52.124;6.018;2022-12-07T04:18:24;2.90;99.90
47600;DHT22;33323;52.124;6.018;2022-12-07T04:20:51;2.90;99.90
47600;DHT22;33323;52.124;6.018;2022-12-07T04:23:18;3.00;99.90
47600;DHT22;33323;52.124;6.018;2022-12-07T04:25:48;3.00;99.90
47600;DHT22;33323;52.124;6.018;2022-12-07T04:31:31;3.00;99.90
47600;DHT22;33323;52.124;6.018;2022-12-07T04:33:58;3.10;99.90
47600;DHT22;33323;52.124;6.018;2022-12-07T04:36:41;3.10;99.90
47600;DHT22;33323;52.124;6.018;2022-12-07T04:39:55;3.10;99.90
47600;DHT22;33323;52.124;6.018;2022-12-07T04:42:22;3.10;99.90
47600;DHT22;33323;52.124;6.018;2022-12-07T04:44:49;3.10;99.90
47600;DHT22;33323;52.124;6.018;2022-12-07T04:53:45;3.00;99.90
47600;DHT22;33323;52.124;6.018;2022-12-07T04:56:13;3.00;99.90
47600;DHT22;33323;52.124;6.018;2022-12-07T05:01:54;2.90;99.90
47600;DHT22;33323;52.124;6.018;2022-12-07T05:04:35;2.90;99.90
47600;DHT22;33323;52.124;6.018;2022-12-07T05:10:22;2.90;99.90
47600;DHT22;33323;52.124;6.018;2022-12-07T05:12:51;2.80;99.90
47600;DHT22;33323;52.124;6.018;2022-12-07T05:15:19;2.80;99.90
47600;DHT22;33323;52.124;6.018;2022-12-07T05:21:06;2.60;99.90
47600;DHT22;33323;52.124;6.018;2022-12-07T05:25:05;2.60;99.90
47600;DHT22;33323;52.124;6.018;2022-12-07T05:28:53;2.60;99.90
47600;DHT22;33323;52.124;6.018;2022-12-07T05:31:21;2.50;99.90
47600;DHT22;33323;52.124;6.018;2022-12-07T05:41:06;2.60;99.90
47600;DHT22;33323;52.124;6.018;2022-12-07T05:43:38;2.70;99.90
47600;DHT22;33323;52.124;6.018;2022-12-07T05:46:05;2.80;99.90
47600;DHT22;33323;52.124;6.018;2022-12-07T05:48:32;2.80;99.90
47600;DHT22;33323;52.124;6.018;2022-12-07T05:50:59;2.90;99.90
47600;DHT22;33323;52.124;6.018;2022-12-07T05:53:26;2.90;99.90
47600;DHT22;33323;52.124;6.018;2022-12-07T05:55:53;3.00;99.90
47600;DHT22;33323;52.124;6.018;2022-12-07T05:58:23;3.00;99.90
47600;DHT22;33323;52.124;6.018;2022-12-07T06:01:20;2.90;99.90
47600;DHT22;33323;52.124;6.018;2022-12-07T06:03:47;2.90;99.90
47600;DHT22;33323;52.124;6.018;2022-12-07T06:06:14;2.80;99.90
47600;DHT22;33323;52.124;6.018;2022-12-07T06:08:43;2.80;99.90
47600;DHT22;33323;52.124;6.018;2022-12-07T06:11:26;2.70;99.90
47600;DHT22;33323;52.124;6.018;2022-12-07T06:14:37;2.70;99.90
47600;DHT22;33323;52.124;6.018;2022-12-07T06:17:12;2.70;99.90
47600;DHT22;33323;52.124;6.018;2022-12-07T06:19:48;2.60;99.90
47600;DHT22;33323;52.124;6.018;2022-12-07T06:22:15;2.60;99.90
47600;DHT22;33323;52.124;6.018;2022-12-07T06:24:42;2.60;99.90
47600;DHT22;33323;52.124;6.018;2022-12-07T06:27:10;2.60;99.90
47600;DHT22;33323;52.124;6.018;2022-12-07T06:29:37;2.50;99.90
47600;DHT22;33323;52.124;6.018;2022-12-07T06:32:04;2.50;99.90
47600;DHT22;33323;52.124;6.018;2022-12-07T06:34:31;2.40;99.90
47600;DHT22;33323;52.124;6.018;2022-12-07T06:36:58;2.40;99.90
47600;DHT22;33323;52.124;6.018;2022-12-07T06:39:28;2.40;99.90
47600;DHT22;33323;52.124;6.018;2022-12-07T06:41:56;2.40;99.90
47600;DHT22;33323;52.124;6.018;2022-12-07T06:44:24;2.40;99.90
47600;DHT22;33323;52.124;6.018;2022-12-07T06:46:52;2.40;99.90
47600;DHT22;33323;52.124;6.018;2022-12-07T06:49:38;2.30;99.90
47600;DHT22;33323;52.124;6.018;2022-12-07T06:52:06;2.40;99.90
47600;DHT22;33323;52.124;6.018;2022-12-07T06:54:33;2.40;99.90
47600;DHT22;33323;52.124;6.018;2022-12-07T06:57:00;2.40;99.90
47600;DHT22;33323;52.124;6.018;2022-12-07T07:02:35;2.40;99.90
47600;DHT22;33323;52.124;6.018;2022-12-07T07:05:11;2.40;99.90
47600;DHT22;33323;52.124;6.018;2022-12-07T07:07:46;2.40;99.90
47600;DHT22;33323;52.124;6.018;2022-12-07T07:56:29;2.40;99.90
47600;DHT22;33323;52.124;6.018;2022-12-07T08:06:48;2.70;99.90
47600;DHT22;33323;52.124;6.018;2022-12-07T08:09:15;2.80;99.90
47600;DHT22;33323;52.124;6.018;2022-12-07T08:11:42;2.90;99.90
47600;DHT22;33323;52.124;6.018;2022-12-07T08:14:10;2.90;99.90
47600;DHT22;33323;52.124;6.018;2022-12-07T08:16:37;3.00;99.90
47600;DHT22;33323;52.124;6.018;2022-12-07T08:19:18;3.00;99.90
47600;DHT22;33323;52.124;6.018;2022-12-07T08:22:18;3.00;99.90
47600;DHT22;33323;52.124;6.018;2022-12-07T08:24:45;3.00;99.90
47600;DHT22;33323;52.124;6.018;2022-12-07T08:27:12;3.10;99.90
47600;DHT22;33323;52.124;6.018;2022-12-07T08:29:39;3.00;99.90
47600;DHT22;33323;52.124;6.018;2022-12-07T08:34:59;3.10;99.90
47600;DHT22;33323;52.124;6.018;2022-12-07T08:37:26;2.90;99.90
47600;DHT22;33323;52.124;6.018;2022-12-07T08:43:01;3.10;99.90
47600;DHT22;33323;52.124;6.018;2022-12-07T08:45:29;3.00;99.90
47600;DHT22;33323;52.124;6.018;2022-12-07T08:48:02;3.10;99.90
47600;DHT22;33323;52.124;6.018;2022-12-07T08:50:32;3.20;99.90
47600;DHT22;33323;52.124;6.018;2022-12-07T08:53:01;3.50;99.90
47600;DHT22;33323;52.124;6.018;2022-12-07T08:55:29;3.90;99.90
47600;DHT22;33323;52.124;6.018;2022-12-07T08:57:58;4.50;99.90
47600;DHT22;33323;52.124;6.018;2022-12-07T09:00:26;4.90;99.90
47600;DHT22;33323;52.124;6.018;2022-12-07T09:02:53;5.10;99.90
47600;DHT22;33323;52.124;6.018;2022-12-07T09:05:21;5.30;99.90
47600;DHT22;33323;52.124;6.018;2022-12-07T09:07:50;5.10;99.90
47600;DHT22;33323;52.124;6.018;2022-12-07T09:10:18;4.80;99.90
47600;DHT22;33323;52.124;6.018;2022-12-07T09:12:46;4.80;99.90
47600;DHT22;33323;52.124;6.018;2022-12-07T09:15:12;5.20;99.90
47600;DHT22;33323;52.124;6.018;2022-12-07T09:17:39;5.50;99.90
47600;DHT22;33323;52.124;6.018;2022-12-07T09:20:07;5.20;99.90
47600;DHT22;33323;52.124;6.018;2022-12-07T09:22:34;5.10;99.90
47600;DHT22;33323;52.124;6.018;2022-12-07T09:25:02;5.50;99.90
47600;DHT22;33323;52.124;6.018;2022-12-07T09:27:31;5.70;99.90
47600;DHT22;33323;52.124;6.018;2022-12-07T09:29:58;5.60;99.90
47600;DHT22;33323;52.124;6.018;2022-12-07T09:32:25;5.40;99.90
47600;DHT22;33323;52.124;6.018;2022-12-07T09:34:52;5.10;99.90
47600;DHT22;33323;52.124;6.018;2022-12-07T09:37:19;4.70;99.90
47600;DHT22;33323;52.124;6.018;2022-12-07T09:39:48;4.70;99.90
47600;DHT22;33323;52.124;6.018;2022-12-07T09:42:29;4.80;99.90
47600;DHT22;33323;52.124;6.018;2022-12-07T09:45:00;5.20;99.90
47600;DHT22;33323;52.124;6.018;2022-12-07T09:47:28;5.70;99.90
47600;DHT22;33323;52.124;6.018;2022-12-07T09:50:05;6.00;99.90
47600;DHT22;33323;52.124;6.018;2022-12-07T09:52:37;6.30;99.90
47600;DHT22;33323;52.124;6.018;2022-12-07T09:55:14;6.30;99.90
47600;DHT22;33323;52.124;6.018;2022-12-07T09:57:43;6.40;99.90
47600;DHT22;33323;52.124;6.018;2022-12-07T10:00:15;6.50;99.90
47600;DHT22;33323;52.124;6.018;2022-12-07T10:02:47;6.70;99.90
47600;DHT22;33323;52.124;6.018;2022-12-07T10:05:41;6.60;99.90
47600;DHT22;33323;52.124;6.018;2022-12-07T10:08:12;6.60;99.90
47600;DHT22;33323;52.124;6.018;2022-12-07T10:10:40;6.60;99.90
47600;DHT22;33323;52.124;6.018;2022-12-07T10:13:13;6.70;99.90
47600;DHT22;33323;52.124;6.018;2022-12-07T10:24:13;6.50;99.90
47600;DHT22;33323;52.124;6.018;2022-12-07T10:29:24;6.40;99.90
47600;DHT22;33323;52.124;6.018;2022-12-07T10:32:05;6.40;99.90
47600;DHT22;33323;52.124;6.018;2022-12-07T10:34:36;6.20;99.90
47600;DHT22;33323;52.124;6.018;2022-12-07T10:42:23;6.20;99.90
47600;DHT22;33323;52.124;6.018;2022-12-07T10:47:51;6.20;99.90
47600;DHT22;33323;52.124;6.018;2022-12-07T10:54:38;5.90;99.90
47600;DHT22;33323;52.124;6.018;2022-12-07T10:59:58;5.80;99.90
47600;DHT22;33323;52.124;6.018;2022-12-07T11:03:23;5.50;99.90
47600;DHT22;33323;52.124;6.018;2022-12-07T11:08:45;5.30;99.90
47600;DHT22;33323;52.124;6.018;2022-12-07T11:11:38;5.30;99.90
47600;DHT22;33323;52.124;6.018;2022-12-07T11:14:31;5.20;99.90
47600;DHT22;33323;52.124;6.018;2022-12-07T11:17:13;5.50;99.90
47600;DHT22;33323;52.124;6.018;2022-12-07T11:20:19;5.60;99.90
47600;DHT22;33323;52.124;6.018;2022-12-07T11:23:13;5.80;99.90
47600;DHT22;33323;52.124;6.018;2022-12-07T11:34:54;6.00;99.90
47600;DHT22;33323;52.124;6.018;2022-12-07T11:37:30;6.20;99.90
47600;DHT22;33323;52.124;6.018;2022-12-07T11:46:02;6.30;99.90
47600;DHT22;33323;52.124;6.018;2022-12-07T11:51:16;6.50;99.90
47600;DHT22;33323;52.124;6.018;2022-12-07T11:53:49;6.50;99.90
47600;DHT22;33323;52.124;6.018;2022-12-07T11:56:21;6.50;99.90
47600;DHT22;33323;52.124;6.018;2022-12-07T12:06:40;6.50;99.90
47600;DHT22;33323;52.124;6.018;2022-12-07T12:09:22;6.40;99.90
47600;DHT22;33323;52.124;6.018;2022-12-07T12:15:34;6.40;99.90
47600;DHT22;33323;52.124;6.018;2022-12-07T12:18:55;6.40;99.90
47600;DHT22;33323;52.124;6.018;2022-12-07T12:21:42;6.40;99.90
47600;DHT22;33323;52.124;6.018;2022-12-07T12:24:15;6.30;99.90
47600;DHT22;33323;52.124;6.018;2022-12-07T12:27:05;6.30;99.90
47600;DHT22;33323;52.124;6.018;2022-12-07T12:29:37;6.50;99.90
47600;DHT22;33323;52.124;6.018;2022-12-07T12:32:16;6.60;99.90
47600;DHT22;33323;52.124;6.018;2022-12-07T12:42:45;7.30;99.90
47600;DHT22;33323;52.124;6.018;2022-12-07T12:45:28;7.20;99.90
47600;DHT22;33323;52.124;6.018;2022-12-07T12:47:57;7.20;99.90
47600;DHT22;33323;52.124;6.018;2022-12-07T12:50:27;7.20;99.90
47600;DHT22;33323;52.124;6.018;2022-12-07T12:52:58;7.00;99.90
47600;DHT22;33323;52.124;6.018;2022-12-07T12:55:52;7.00;99.90
47600;DHT22;33323;52.124;6.018;2022-12-07T12:58:42;7.00;99.90
47600;DHT22;33323;52.124;6.018;2022-12-07T13:01:37;6.90;99.90
47600;DHT22;33323;52.124;6.018;2022-12-07T13:04:29;6.90;99.90
47600;DHT22;33323;52.124;6.018;2022-12-07T13:07:01;6.90;99.90
47600;DHT22;33323;52.124;6.018;2022-12-07T13:09:34;6.90;99.90
47600;DHT22;33323;52.124;6.018;2022-12-07T13:12:12;6.80;99.90
47600;DHT22;33323;52.124;6.018;2022-12-07T13:14:53;6.80;99.90
47600;DHT22;33323;52.124;6.018;2022-12-07T13:20:00;6.80;99.90
47600;DHT22;33323;52.124;6.018;2022-12-07T13:28:02;6.60;99.90
47600;DHT22;33323;52.124;6.018;2022-12-07T13:31:01;6.60;99.90
47600;DHT22;33323;52.124;6.018;2022-12-07T13:33:34;6.60;99.90
47600;DHT22;33323;52.124;6.018;2022-12-07T13:36:01;6.50;99.90
47600;DHT22;33323;52.124;6.018;2022-12-07T13:38:33;6.50;99.90
47600;DHT22;33323;52.124;6.018;2022-12-07T13:41:15;6.50;99.90
47600;DHT22;33323;52.124;6.018;2022-12-07T13:43:59;6.40;99.90
47600;DHT22;33323;52.124;6.018;2022-12-07T13:49:22;6.30;99.90
47600;DHT22;33323;52.124;6.018;2022-12-07T13:51:56;6.20;99.90
47600;DHT22;33323;52.124;6.018;2022-12-07T13:55:01;6.20;99.90
47600;DHT22;33323;52.124;6.018;2022-12-07T13:57:35;6.20;99.90
47600;DHT22;33323;52.124;6.018;2022-12-07T14:00:13;6.00;99.90
47600;DHT22;33323;52.124;6.018;2022-12-07T14:02:59;6.00;99.90
47600;DHT22;33323;52.124;6.018;2022-12-07T14:05:43;6.00;99.90
47600;DHT22;33323;52.124;6.018;2022-12-07T14:13:34;6.00;99.90
47600;DHT22;33323;52.124;6.018;2022-12-07T14:16:27;6.00;99.90
47600;DHT22;33323;52.124;6.018;2022-12-07T14:18:58;5.80;99.90
47600;DHT22;33323;52.124;6.018;2022-12-07T14:21:31;5.80;99.90
47600;DHT22;33323;52.124;6.018;2022-12-07T14:24:18;5.70;99.90
47600;DHT22;33323;52.124;6.018;2022-12-07T14:26:48;5.70;99.90
47600;DHT22;33323;52.124;6.018;2022-12-07T14:29:27;5.70;99.90
47600;DHT22;33323;52.124;6.018;2022-12-07T14:32:27;5.60;99.90
47600;DHT22;33323;52.124;6.018;2022-12-07T14:35:18;5.50;99.90
47600;DHT22;33323;52.124;6.018;2022-12-07T14:37:47;5.40;99.90
47600;DHT22;33323;52.124;6.018;2022-12-07T14:40:25;5.30;99.90
47600;DHT22;33323;52.124;6.018;2022-12-07T14:43:06;5.30;99.90
47600;DHT22;33323;52.124;6.018;2022-12-07T14:45:36;5.30;99.90
47600;DHT22;33323;52.124;6.018;2022-12-07T14:48:03;5.30;99.90
47600;DHT22;33323;52.124;6.018;2022-12-07T14:50:52;5.40;99.90
47600;DHT22;33323;52.124;6.018;2022-12-07T14:53:44;5.30;99.90
47600;DHT22;33323;52.124;6.018;2022-12-07T14:56:18;5.30;99.90
47600;DHT22;33323;52.124;6.018;2022-12-07T14:58:45;5.30;99.90
47600;DHT22;33323;52.124;6.018;2022-12-07T15:01:14;5.30;99.90
47600;DHT22;33323;52.124;6.018;2022-12-07T15:03:41;5.20;99.90
47600;DHT22;33323;52.124;6.018;2022-12-07T15:06:14;5.20;99.90
47600;DHT22;33323;52.124;6.018;2022-12-07T15:08:43;5.10;99.90
47600;DHT22;33323;52.124;6.018;2022-12-07T15:11:26;5.10;99.90
47600;DHT22;33323;52.124;6.018;2022-12-07T15:13:54;4.90;99.90
47600;DHT22;33323;52.124;6.018;2022-12-07T15:16:41;4.90;99.90
47600;DHT22;33323;52.124;6.018;2022-12-07T15:19:29;4.90;99.90
47600;DHT22;33323;52.124;6.018;2022-12-07T15:21:57;4.80;99.90
47600;DHT22;33323;52.124;6.018;2022-12-07T15:24:26;4.80;99.90
47600;DHT22;33323;52.124;6.018;2022-12-07T15:26:53;4.80;99.90
47600;DHT22;33323;52.124;6.018;2022-12-07T15:29:20;4.70;99.90
47600;DHT22;33323;52.124;6.018;2022-12-07T15:31:52;4.70;99.90
47600;DHT22;33323;52.124;6.018;2022-12-07T15:34:27;4.70;99.90
47600;DHT22;33323;52.124;6.018;2022-12-07T15:37:04;4.70;99.90
47600;DHT22;33323;52.124;6.018;2022-12-07T15:39:32;4.60;99.90
47600;DHT22;33323;52.124;6.018;2022-12-07T15:41:59;4.60;99.90
47600;DHT22;33323;52.124;6.018;2022-12-07T15:44:26;4.60;99.90
47600;DHT22;33323;52.124;6.018;2022-12-07T15:47:12;4.60;99.90
47600;DHT22;33323;52.124;6.018;2022-12-07T15:49:39;4.60;99.90
47600;DHT22;33323;52.124;6.018;2022-12-07T15:52:06;4.60;99.90
47600;DHT22;33323;52.124;6.018;2022-12-07T15:54:33;4.60;99.90
47600;DHT22;33323;52.124;6.018;2022-12-07T15:57:00;4.60;99.90
47600;DHT22;33323;52.124;6.018;2022-12-07T15:59:28;4.60;99.90
47600;DHT22;33323;52.124;6.018;2022-12-07T16:04:55;4.60;99.90
47600;DHT22;33323;52.124;6.018;2022-12-07T16:07:22;4.60;99.90
47600;DHT22;33323;52.124;6.018;2022-12-07T16:09:49;4.60;99.90
47600;DHT22;33323;52.124;6.018;2022-12-07T16:12:16;4.70;99.90
47600;DHT22;33323;52.124;6.018;2022-12-07T16:14:43;4.60;99.90
47600;DHT22;33323;52.124;6.018;2022-12-07T16:20:22;4.50;99.90
47600;DHT22;33323;52.124;6.018;2022-12-07T16:22:52;4.50;99.90
47600;DHT22;33323;52.124;6.018;2022-12-07T16:25:25;4.40;99.90
47600;DHT22;33323;52.124;6.018;2022-12-07T16:28:11;4.30;99.90
47600;DHT22;33323;52.124;6.018;2022-12-07T16:34:59;4.30;99.90
47600;DHT22;33323;52.124;6.018;2022-12-07T16:59:33;3.90;99.90
47600;DHT22;33323;52.124;6.018;2022-12-07T17:02:03;3.80;99.90
47600;DHT22;33323;52.124;6.018;2022-12-07T17:04:30;3.90;99.90
47600;DHT22;33323;52.124;6.018;2022-12-07T17:06:58;3.80;99.90
47600;DHT22;33323;52.124;6.018;2022-12-07T17:09:25;3.80;99.90
47600;DHT22;33323;52.124;6.018;2022-12-07T17:11:55;3.80;99.90
47600;DHT22;33323;52.124;6.018;2022-12-07T17:14:25;3.80;99.90
47600;DHT22;33323;52.124;6.018;2022-12-07T17:34:55;3.80;99.90
47600;DHT22;33323;52.124;6.018;2022-12-07T17:37:22;3.80;99.90
47600;DHT22;33323;52.124;6.018;2022-12-07T17:58:51;3.70;99.90
47600;DHT22;33323;52.124;6.018;2022-12-07T18:01:18;3.70;99.90
47600;DHT22;33323;52.124;6.018;2022-12-07T18:03:50;3.70;99.90
47600;DHT22;33323;52.124;6.018;2022-12-07T18:06:17;3.70;99.90
47600;DHT22;33323;52.124;6.018;2022-12-07T18:08:44;3.70;99.90
47600;DHT22;33323;52.124;6.018;2022-12-07T18:11:11;4.00;99.90
47600;DHT22;33323;52.124;6.018;2022-12-07T18:13:40;4.10;99.90
47600;DHT22;33323;52.124;6.018;2022-12-07T18:16:10;3.90;99.90
47600;DHT22;33323;52.124;6.018;2022-12-07T18:18:40;3.90;99.90
47600;DHT22;33323;52.124;6.018;2022-12-07T18:21:09;3.80;99.90
47600;DHT22;33323;52.124;6.018;2022-12-07T18:23:50;3.80;99.90
47600;DHT22;33323;52.124;6.018;2022-12-07T18:26:20;3.80;99.90
47600;DHT22;33323;52.124;6.018;2022-12-07T18:28:49;3.70;99.90
47600;DHT22;33323;52.124;6.018;2022-12-07T18:31:16;3.70;99.90
47600;DHT22;33323;52.124;6.018;2022-12-07T18:33:44;3.70;99.90
47600;DHT22;33323;52.124;6.018;2022-12-07T18:36:13;3.70;99.90
47600;DHT22;33323;52.124;6.018;2022-12-07T18:38:40;3.70;99.90
47600;DHT22;33323;52.124;6.018;2022-12-07T18:41:11;3.60;99.90
47600;DHT22;33323;52.124;6.018;2022-12-07T18:43:39;3.70;99.90
47600;DHT22;33323;52.124;6.018;2022-12-07T18:46:24;3.60;99.90
47600;DHT22;33323;52.124;6.018;2022-12-07T18:48:51;3.60;99.90
47600;DHT22;33323;52.124;6.018;2022-12-07T18:51:19;3.60;99.90
47600;DHT22;33323;52.124;6.018;2022-12-07T18:53:47;3.60;99.90
47600;DHT22;33323;52.124;6.018;2022-12-07T18:56:20;3.60;99.90
47600;DHT22;33323;52.124;6.018;2022-12-07T19:07:08;3.60;99.90
47600;DHT22;33323;52.124;6.018;2022-12-07T19:09:35;3.60;99.90
47600;DHT22;33323;52.124;6.018;2022-12-07T19:12:02;3.60;99.90
47600;DHT22;33323;52.124;6.018;2022-12-07T19:14:33;3.60;99.90
47600;DHT22;33323;52.124;6.018;2022-12-07T19:17:05;3.60;99.90
47600;DHT22;33323;52.124;6.018;2022-12-07T19:20:06;3.60;99.90
47600;DHT22;33323;52.124;6.018;2022-12-07T19:22:35;3.60;99.90
47600;DHT22;33323;52.124;6.018;2022-12-07T19:25:03;3.50;99.90
47600;DHT22;33323;52.124;6.018;2022-12-07T19:27:31;3.60;99.90
47600;DHT22;33323;52.124;6.018;2022-12-07T20:32:22;3.50;99.90
47600;DHT22;33323;52.124;6.018;2022-12-07T20:34:49;3.50;99.90
47600;DHT22;33323;52.124;6.018;2022-12-07T20:37:16;3.50;99.90
47600;DHT22;33323;52.124;6.018;2022-12-07T20:39:44;3.50;99.90
47600;DHT22;33323;52.124;6.018;2022-12-07T20:44:59;3.50;99.90
47600;DHT22;33323;52.124;6.018;2022-12-07T20:47:29;3.50;99.90
47600;DHT22;33323;52.124;6.018;2022-12-07T20:49:56;3.50;99.90
47600;DHT22;33323;52.124;6.018;2022-12-07T20:52:23;3.50;99.90
47600;DHT22;33323;52.124;6.018;2022-12-07T20:54:50;3.50;99.90
47600;DHT22;33323;52.124;6.018;2022-12-07T20:57:17;3.50;99.90
47600;DHT22;33323;52.124;6.018;2022-12-07T20:59:44;3.50;99.90
47600;DHT22;33323;52.124;6.018;2022-12-07T21:02:12;3.50;99.90
47600;DHT22;33323;52.124;6.018;2022-12-07T21:04:40;3.50;99.90
47600;DHT22;33323;52.124;6.018;2022-12-07T21:07:07;3.50;99.90
47600;DHT22;33323;52.124;6.018;2022-12-07T21:09:34;3.50;99.90
47600;DHT22;33323;52.124;6.018;2022-12-07T21:12:01;3.50;99.90
47600;DHT22;33323;52.124;6.018;2022-12-07T21:14:28;3.50;99.90
47600;DHT22;33323;52.124;6.018;2022-12-07T21:16:55;3.50;99.90
47600;DHT22;33323;52.124;6.018;2022-12-07T21:19:22;3.40;99.90
47600;DHT22;33323;52.124;6.018;2022-12-07T21:21:50;3.40;99.90
47600;DHT22;33323;52.124;6.018;2022-12-07T21:24:17;3.40;99.90
47600;DHT22;33323;52.124;6.018;2022-12-07T21:26:44;3.40;99.90
47600;DHT22;33323;52.124;6.018;2022-12-07T21:29:11;3.40;99.90
47600;DHT22;33323;52.124;6.018;2022-12-07T21:31:38;3.30;99.90
47600;DHT22;33323;52.124;6.018;2022-12-07T21:34:06;3.30;99.90
47600;DHT22;33323;52.124;6.018;2022-12-07T21:36:34;3.30;99.90
47600;DHT22;33323;52.124;6.018;2022-12-07T21:39:01;3.30;99.90
47600;DHT22;33323;52.124;6.018;2022-12-07T21:41:30;3.30;99.90
47600;DHT22;33323;52.124;6.018;2022-12-07T21:43:58;3.20;99.90
47600;DHT22;33323;52.124;6.018;2022-12-07T21:46:27;3.20;99.90
47600;DHT22;33323;52.124;6.018;2022-12-07T21:49:03;3.20;99.90
47600;DHT22;33323;52.124;6.018;2022-12-07T21:51:35;3.20;99.90
47600;DHT22;33323;52.124;6.018;2022-12-07T21:54:03;3.20;99.90
47600;DHT22;33323;52.124;6.018;2022-12-07T21:56:36;3.20;99.90
47600;DHT22;33323;52.124;6.018;2022-12-07T21:59:07;3.20;99.90
47600;DHT22;33323;52.124;6.018;2022-12-07T22:01:37;3.20;99.90
47600;DHT22;33323;52.124;6.018;2022-12-07T22:04:08;3.20;99.90
47600;DHT22;33323;52.124;6.018;2022-12-07T22:06:37;3.20;99.90
47600;DHT22;33323;52.124;6.018;2022-12-07T22:09:05;3.20;99.90
47600;DHT22;33323;52.124;6.018;2022-12-07T22:11:33;3.10;99.90
47600;DHT22;33323;52.124;6.018;2022-12-07T22:14:00;3.10;99.90
47600;DHT22;33323;52.124;6.018;2022-12-07T22:16:45;3.10;99.90
47600;DHT22;33323;52.124;6.018;2022-12-07T22:19:12;3.10;99.90
47600;DHT22;33323;52.124;6.018;2022-12-07T22:21:39;3.10;99.90
47600;DHT22;33323;52.124;6.018;2022-12-07T22:24:07;3.10;99.90
47600;DHT22;33323;52.124;6.018;2022-12-07T22:26:34;3.10;99.90
47600;DHT22;33323;52.124;6.018;2022-12-07T22:29:01;3.10;99.90
47600;DHT22;33323;52.124;6.018;2022-12-07T22:31:28;3.00;99.90
47600;DHT22;33323;52.124;6.018;2022-12-07T22:33:55;3.00;99.90
47600;DHT22;33323;52.124;6.018;2022-12-07T22:36:23;3.00;99.90
47600;DHT22;33323;52.124;6.018;2022-12-07T22:38:50;3.00;99.90
47600;DHT22;33323;52.124;6.018;2022-12-07T22:41:28;3.00;99.90
47600;DHT22;33323;52.124;6.018;2022-12-07T22:43:57;3.00;99.90
47600;DHT22;33323;52.124;6.018;2022-12-07T22:46:25;2.90;99.90
47600;DHT22;33323;52.124;6.018;2022-12-07T22:48:52;2.80;99.90
47600;DHT22;33323;52.124;6.018;2022-12-07T22:53:51;2.80;99.90